História da METAR Noord Nederlandse Zweefvliegclub (NL-0036)

1 de outubro de 2022

Hora Código Clima Temp. Visibilidade Tecto Vento METAR/SPECI
02:25
M
11 °C 9 km 1.500 ft 180° 180° 17 kt METAR EHLE 010025Z AUTO 18017KT 9000 RA FEW009 SCT014 BKN015CB 11/10 Q1000
01:55
M
11 °C 10 km+ 2.400 ft 180° 180° 16 kt METAR EHLE 302355Z AUTO 18016KT 9999 -RA FEW014 SCT020 OVC024 11/10 Q1002
01:25
V
11 °C 10 km+ 4.300 ft 190° 190° 14 kt METAR EHLE 302325Z AUTO 19014KT 160V230 9999 RA SCT015CB OVC043 11/10 Q1002
00:55
M
11 °C 10 km+ 1.500 ft 180° 180° 14 kt METAR EHLE 302255Z AUTO 18014KT 160V220 9999 RA BKN015CB 11/10 Q1003
00:25
V
12 °C 10 km+ - 190° 190° 16 kt METAR EHLE 302225Z AUTO 19016KT 160V220 9999 -RA FEW015CB 12/09 Q1003

30 de setembro de 2022

Hora Código Clima Temp. Visibilidade Tecto Vento METAR/SPECI
23:55
V
12 °C 10 km+ - 190° 190° 14 kt METAR EHLE 302155Z AUTO 19014KT 150V220 9999 -RADZ NSC 12/09 Q1003
23:25
V
14 °C 10 km+ - 190° 190° 16 kt METAR EHLE 302125Z AUTO 19016KT 150V230 9999 -RA FEW049 14/08 Q1003
22:55
V
14 °C 10 km+ - 190° 190° 15 kt METAR EHLE 302055Z AUTO 19015KT 160V220 9999 NSC 14/08 Q1004
22:25
V
13 °C 10 km+ - 180° 180° 15 kt METAR EHLE 302025Z AUTO 18015KT 150V220 9999 NSC 13/08 Q1004
21:55
V
13 °C 10 km+ - 180° 180° 15 kt METAR EHLE 301955Z AUTO 18015KT 9999 NSC 13/09 Q1005
21:25
V
13 °C 10 km+ - 180° 180° 14 kt METAR EHLE 301925Z AUTO 18014KT 150V210 9999 NSC 13/09 Q1005 NOSIG
20:55
V
13 °C 10 km+ - 180° 180° 12 kt METAR EHLE 301855Z AUTO 18012KT 150V210 9999 NSC 13/09 Q1005 NOSIG
20:25
V
13 °C 10 km+ - 180° 180° 12 kt METAR EHLE 301825Z AUTO 18012KT 9999 NSC 13/09 Q1006 NOSIG
19:55
V
13 °C 10 km+ - 180° 180° 10 kt METAR EHLE 301755Z AUTO 18010KT 9999 NSC 13/09 Q1006 NOSIG
19:25
V
14 °C 10 km+ - 180° 180° 9 kt METAR EHLE 301725Z AUTO 18009KT 9999 NSC 14/09 Q1006 NOSIG
18:55
V
14 °C 10 km+ - 180° 180° 8 kt METAR EHLE 301655Z AUTO 18008KT 9999 FEW045 14/09 Q1007 NOSIG
18:25
V
15 °C 10 km+ 4.300 ft 200° 200° 8 kt METAR EHLE 301625Z AUTO 20008KT 180V240 9999 BKN043 BKN048 15/09 Q1007 NOSIG
17:55
V
16 °C 10 km+ - 210° 210° 12 kt METAR EHLE 301555Z AUTO 21012KT 180V240 9999 NSC 16/08 Q1007 NOSIG
17:25
V
16 °C 10 km+ - 210° 210° 12 kt METAR EHLE 301525Z AUTO 21012KT 180V240 9999 FEW037 16/09 Q1007 NOSIG
16:55
V
16 °C 10 km+ - 200° 200° 12 kt METAR EHLE 301455Z AUTO 20012KT 9999 NSC 16/10 Q1007 NOSIG
16:25
V
17 °C 10 km+ - 210° 210° 12 kt METAR EHLE 301425Z AUTO 21012KT 180V240 9999 FEW034 17/09 Q1007 NOSIG
15:55
V
17 °C 10 km+ - 200° 200° 14 kt METAR EHLE 301355Z AUTO 20014KT 170V240 9999 FEW034 17/09 Q1007 NOSIG
15:25
V
17 °C 10 km+ - 210° 210° 13 kt METAR EHLE 301325Z AUTO 21013KT 9999 FEW034 17/10 Q1007 NOSIG
14:55
V
17 °C 10 km+ - 200° 200° 13 kt METAR EHLE 301255Z AUTO 20013KT 160V230 9999 SCT034 17/10 Q1008 NOSIG
14:25
V
17 °C 10 km+ - 200° 200° 11 kt METAR EHLE 301225Z AUTO 20011KT 170V240 9999 NCD 17/10 Q1008 NOSIG
13:55
V
17 °C 10 km+ - 200° 200° 12 kt METAR EHLE 301155Z AUTO 20012KT 160V230 9999 FEW036 17/10 Q1008 NOSIG
13:25
V
16 °C 10 km+ - 210° 210° 11 kt METAR EHLE 301125Z AUTO 21011KT 170V240 9999 FEW027 16/10 Q1008 NOSIG
12:55
V
16 °C 10 km+ - 200° 200° 12 kt METAR EHLE 301055Z AUTO 20012KT 160V230 9999 NSC 16/10 Q1009 NOSIG
12:25
V
16 °C 10 km+ - 200° 200° 11 kt METAR EHLE 301025Z AUTO 20011KT 170V230 9999 NSC 16/11 Q1009 NOSIG
11:55
V
14 °C 10 km+ - 210° 210° 8 kt METAR EHLE 300955Z AUTO 21008KT 180V250 9999 NSC 14/11 Q1009 NOSIG
11:25
V
14 °C 10 km+ - 200° 200° 8 kt METAR EHLE 300925Z AUTO 20008KT 170V230 9999 NSC 14/10 Q1009 NOSIG
10:55
V
13 °C 10 km+ - 210° 210° 7 kt METAR EHLE 300855Z AUTO 21007KT 9999 NSC 13/10 Q1009 NOSIG
10:25
V
12 °C 10 km+ - 190° 190° 5 kt METAR EHLE 300825Z AUTO 19005KT 170V230 9999 NCD 12/09 Q1009 NOSIG
09:55
V
10 °C 10 km+ - 150° 150° 3 kt METAR EHLE 300755Z AUTO 15003KT 120V200 9999 NCD 10/09 Q1009 NOSIG
09:25
V
9 °C 10 km+ - 170° 170° 3 kt METAR EHLE 300725Z AUTO 17003KT 9999 NCD 09/08 Q1009 NOSIG
08:55
V
7 °C 9 km - 140° 140° 4 kt METAR EHLE 300655Z AUTO 14004KT 9000 NCD 07/06 Q1009 NOSIG
08:25
V
5 °C 10 km+ - 150° 150° 3 kt METAR EHLE 300625Z AUTO 15003KT 9999 NCD 05/04 Q1009 NOSIG
07:55
V
4 °C 10 km+ - Var Var 2 kt METAR EHLE 300555Z AUTO VRB02KT 9999 NCD 04/04 Q1008 NOSIG
07:25
V
4 °C 10 km+ - 170° 170° 2 kt METAR EHLE 300525Z AUTO 17002KT 9999 NCD 04/04 Q1008 NOSIG
06:55
I
4 °C 4,5 km - 170° 170° 3 kt METAR EHLE 300455Z AUTO 17003KT 4500 NCD 04/04 Q1008 NOSIG
06:25
M
4 °C 6 km - 190° 190° 3 kt METAR EHLE 300425Z AUTO 19003KT 6000 NCD 04/04 Q1008
05:55
V
5 °C 10 km+ - 160° 160° 1 kt METAR EHLE 300355Z AUTO 16001KT 9999 NCD 05/05 Q1008
05:25
V
5 °C 10 km+ - 160° 160° 2 kt METAR EHLE 300325Z AUTO 16002KT 9999 NCD 05/05 Q1008
04:55
V
6 °C 10 km+ - 150° 150° 4 kt METAR EHLE 300255Z AUTO 15004KT 9999 NCD 06/05 Q1007
04:25
V
5 °C 10 km+ - 160° 160° 4 kt METAR EHLE 300225Z AUTO 16004KT 9999 NCD 05/05 Q1007
03:55
V
6 °C 10 km+ - 160° 160° 3 kt METAR EHLE 300155Z AUTO 16003KT 9999 NCD 06/05 Q1007
03:25
V
6 °C 10 km+ - Var Var 2 kt METAR EHLE 300125Z AUTO VRB02KT 9999 NSC 06/06 Q1007
02:55
V
7 °C 10 km+ - 140° 140° 2 kt METAR EHLE 300055Z AUTO 14002KT 9999 NSC 07/06 Q1007
02:25
V
7 °C 10 km+ - 360° 360° 1 kt METAR EHLE 300025Z AUTO 36001KT 9999 NSC 07/06 Q1007
01:55
V
7 °C 10 km+ - 250° 250° 3 kt METAR EHLE 292355Z AUTO 25003KT 9999 NSC 07/06 Q1007
01:25
V
5 °C 10 km+ - 210° 210° 2 kt METAR EHLE 292325Z AUTO 21002KT 9999 NSC 05/05 Q1007
00:55
V
6 °C 10 km+ - 220° 220° 1 kt METAR EHLE 292255Z AUTO 22001KT 9999 NCD 06/06 Q1007
00:25
V
6 °C 10 km+ - 160° 160° 2 kt METAR EHLE 292225Z AUTO 16002KT 9999 NSC 06/06 Q1007

29 de setembro de 2022

Hora Código Clima Temp. Visibilidade Tecto Vento METAR/SPECI
23:55
V
6 °C 10 km+ - 180° 180° 1 kt METAR EHLE 292155Z AUTO 18001KT 9999 NSC 06/06 Q1007
23:25
V
7 °C 10 km+ - 230° 230° 2 kt METAR EHLE 292125Z AUTO 23002KT 9999 NSC 07/06 Q1007
22:55
V
6 °C 10 km+ - 140° 140° 1 kt METAR EHLE 292055Z AUTO 14001KT 9999 NSC 06/06 Q1006
22:25
V
7 °C 10 km+ - Var Var 1 kt METAR EHLE 292025Z AUTO VRB01KT 9999 NSC 07/07 Q1006 NOSIG
21:55
V
7 °C 10 km+ - 220° 220° 1 kt METAR EHLE 291955Z AUTO 22001KT 9999 NCD 07/07 Q1006 NOSIG
21:25
V
8 °C 10 km+ - 230° 230° 1 kt METAR EHLE 291925Z AUTO 23001KT 9999 NCD 08/07 Q1006 NOSIG
20:55
V
8 °C 10 km+ - Var Var 2 kt METAR EHLE 291855Z AUTO VRB02KT 9999 NSC 08/07 Q1005 NOSIG
20:25
V
9 °C 10 km+ - Var 000° 0 kt METAR EHLE 291825Z AUTO 00000KT 9999 NSC 09/08 Q1005 NOSIG
19:55
V
11 °C 10 km+ - 350° 350° 2 kt METAR EHLE 291755Z AUTO 35002KT 9999 NCD 11/07 Q1005 NOSIG
19:25
V
11 °C 10 km+ - 320° 320° 3 kt METAR EHLE 291725Z AUTO 32003KT 9999 NCD 11/07 Q1005 NOSIG
18:55
V
13 °C 10 km+ - 300° 300° 3 kt METAR EHLE 291655Z AUTO 30003KT 9999 NCD 13/07 Q1004 NOSIG
18:25
V
14 °C 10 km+ - 320° 320° 4 kt METAR EHLE 291625Z AUTO 32004KT 9999 NCD 14/08 Q1004 NOSIG
17:55
V
15 °C 10 km+ - 320° 320° 4 kt METAR EHLE 291555Z AUTO 32004KT 280V350 9999 NCD 15/08 Q1004 NOSIG
17:25
V
15 °C 10 km+ - Var Var 2 kt METAR EHLE 291525Z AUTO VRB02KT 9999 NCD 15/07 Q1003 NOSIG
16:55
V
15 °C 10 km+ - 310° 310° 3 kt METAR EHLE 291455Z AUTO 31003KT 210V010 9999 NSC 15/08 Q1003 NOSIG
16:25
V
14 °C 10 km+ 3.900 ft 350° 350° 3 kt METAR EHLE 291425Z AUTO 35003KT 9999 FEW032 BKN039 BKN044 14/08 Q1003 NOSIG
15:55
V
15 °C 10 km+ - 320° 320° 4 kt METAR EHLE 291355Z AUTO 32004KT 240V050 9999 SCT028 15/09 Q1003 NOSIG
15:25
V
16 °C 10 km+ - Var Var 2 kt METAR EHLE 291325Z AUTO VRB02KT 9999 NSC 16/08 Q1003 NOSIG
14:55
V
15 °C 10 km+ - 200° 200° 3 kt METAR EHLE 291255Z AUTO 20003KT 160V240 9999 NSC 15/08 Q1003 NOSIG
14:25
V
14 °C 10 km+ - Var Var 2 kt METAR EHLE 291225Z AUTO VRB02KT 9999 NSC 14/08 Q1003 NOSIG
13:55
M
14 °C 10 km+ 2.500 ft 240° 240° 3 kt METAR EHLE 291155Z AUTO 24003KT 160V310 9999 BKN025 14/08 Q1002 NOSIG
13:25
V
14 °C 10 km+ - Var Var 3 kt METAR EHLE 291125Z AUTO VRB03KT 9999 NSC 14/09 Q1002 NOSIG
12:55
V
14 °C 10 km+ - 150° 150° 3 kt METAR EHLE 291055Z AUTO 15003KT 110V220 9999 NSC 14/09 Q1002 NOSIG
12:25
V
13 °C 10 km+ - 150° 150° 4 kt METAR EHLE 291025Z AUTO 15004KT 090V200 9999 NSC 13/09 Q1002 NOSIG
11:55
V
13 °C 10 km+ - 160° 160° 4 kt METAR EHLE 290955Z AUTO 16004KT 110V220 9999 NCD 13/09 Q1002 NOSIG
11:25
V
12 °C 10 km+ - 160° 160° 4 kt METAR EHLE 290925Z AUTO 16004KT 130V200 9999 NCD 12/10 Q1002 NOSIG
10:55
V
11 °C 10 km+ - 160° 160° 3 kt METAR EHLE 290855Z AUTO 16003KT 120V210 9999 NCD 11/09 Q1002 NOSIG
10:25
V
10 °C 10 km+ - 170° 170° 3 kt METAR EHLE 290825Z AUTO 17003KT 140V240 9999 NCD 10/08 Q1001 NOSIG
09:55
V
8 °C 10 km+ - Var Var 2 kt METAR EHLE 290755Z AUTO VRB02KT 9999 NCD 08/07 Q1001 NOSIG
09:25
V
7 °C 10 km+ - Var Var 2 kt METAR EHLE 290725Z AUTO VRB02KT 9999 NCD 07/07 Q1001 NOSIG
08:55
I
5 °C 4,3 km - 160° 160° 3 kt METAR EHLE 290655Z AUTO 16003KT 4300 NCD 05/05 Q1000 BECMG 9999
08:25
L
3 °C 250 m - 160° 160° 3 kt METAR EHLE 290625Z AUTO 16003KT 0250 R23/0500U FG NCD 03/03 Q1000 BECMG 0800 FG
07:55
L
3 °C 300 m - 150° 150° 2 kt METAR EHLE 290555Z AUTO 15002KT 0300 R23/1400U FG NCD 03/03 Q1000 BECMG 0700 FG
07:25
L
3 °C 400 m - Var Var 2 kt METAR EHLE 290525Z AUTO VRB02KT 0400 R23/0650N FG NCD 03/03 Q1000 BECMG 0700 FG
06:55
L
4 °C 550 m - 160° 160° 3 kt METAR EHLE 290455Z AUTO 16003KT 0550 BR NCD 04/04 Q1000
06:25
L
3 °C 500 m - 170° 170° 3 kt METAR EHLE 290425Z AUTO 17003KT 0500 BR NCD 03/03 Q0999
05:55
L
4 °C 600 m - 170° 170° 4 kt METAR EHLE 290355Z AUTO 17004KT 0600 BR NCD 04/04 Q0999
05:25
L
4 °C 700 m - 160° 160° 3 kt METAR EHLE 290325Z AUTO 16003KT 0700 BR NCD 04/03 Q0999
04:55
L
4 °C 700 m - 160° 160° 3 kt METAR EHLE 290255Z AUTO 16003KT 0700 BR NCD 04/04 Q0999
04:25
L
4 °C 700 m - 180° 180° 4 kt METAR EHLE 290225Z AUTO 18004KT 0700 BR NCD 04/04 Q0999
03:55
I
5 °C 2,3 km - 160° 160° 4 kt METAR EHLE 290155Z AUTO 16004KT 2300 BR NCD 05/05 Q0999
03:25
L
5 °C 600 m - 150° 150° 3 kt METAR EHLE 290125Z AUTO 15003KT 0600 NSC 05/05 Q0999
02:55
L
5 °C 900 m - 160° 160° 3 kt METAR EHLE 290055Z AUTO 16003KT 0900 BR NCD 05/04 Q0999
02:25
I
6 °C 2,1 km - 150° 150° 5 kt METAR EHLE 290025Z AUTO 15005KT 2100 NCD 06/06 Q0999
01:55
L
5 °C 1,1 km - 130° 130° 5 kt METAR EHLE 282355Z AUTO 13005KT 1100 NCD 05/05 Q0999
01:25
I
5 °C 1,6 km - 150° 150° 4 kt METAR EHLE 282325Z AUTO 15004KT 1600 NCD 05/05 Q0999
00:55
I
6 °C 4,4 km - 160° 160° 4 kt METAR EHLE 282255Z AUTO 16004KT 4400 NCD 06/06 Q0999
00:25
V
6 °C 10 km+ - 160° 160° 5 kt METAR EHLE 282225Z AUTO 16005KT 9999 NCD 06/06 Q0999

28 de setembro de 2022

Hora Código Clima Temp. Visibilidade Tecto Vento METAR/SPECI
23:55
V
7 °C 10 km+ - 170° 170° 3 kt METAR EHLE 282155Z AUTO 17003KT 9999 NSC 07/07 Q0999
23:25
V
7 °C 10 km+ - 170° 170° 3 kt METAR EHLE 282125Z AUTO 17003KT 120V210 9999 NSC 07/07 Q0998
22:55
V
7 °C 10 km+ - 160° 160° 5 kt METAR EHLE 282055Z AUTO 16005KT 9999 NSC 07/06 Q0998
22:25
V
7 °C 10 km+ - 150° 150° 5 kt METAR EHLE 282025Z AUTO 15005KT 9999 NSC 07/06 Q0998
21:55
V
8 °C 10 km+ - Var Var 1 kt METAR EHLE 281955Z AUTO VRB01KT 9999 NSC 08/07 Q0998
21:25
V
9 °C 10 km+ - Var Var 1 kt METAR EHLE 281925Z AUTO VRB01KT 9999 NSC 09/08 Q0998 NOSIG
20:55
V
9 °C 10 km+ - 210° 210° 4 kt METAR EHLE 281855Z AUTO 21004KT 9999 NSC 09/08 Q0998 NOSIG
20:25
V
9 °C 10 km+ - 230° 230° 5 kt METAR EHLE 281825Z AUTO 23005KT 9999 NSC 09/07 Q0998 NOSIG
19:55
V
10 °C 10 km+ - 250° 250° 6 kt METAR EHLE 281755Z AUTO 25006KT 9999 NSC 10/08 Q0998 TEMPO 7000 -SHRA FEW020CB
19:25
V
11 °C 10 km+ - 270° 270° 7 kt METAR EHLE 281725Z AUTO 27007KT 9999 NSC 11/08 Q0997 TEMPO 7000 -SHRA FEW020CB
18:55
V
11 °C 10 km+ - 240° 240° 5 kt METAR EHLE 281655Z AUTO 24005KT 9999 NSC 11/09 Q0997 TEMPO 7000 -SHRA FEW020CB
18:25
V
12 °C 10 km+ - 240° 240° 8 kt METAR EHLE 281625Z AUTO 24008KT 9999 NSC 12/09 Q0997 TEMPO 7000 -SHRA FEW020CB
17:55
V
12 °C 10 km+ 4.600 ft 240° 240° 7 kt METAR EHLE 281555Z AUTO 24007KT 9999 SCT041/// BKN046/// 12/09 Q0997 TEMPO 7000 -SHRA FEW020CB
17:25
V
12 °C 10 km+ - 240° 240° 4 kt METAR EHLE 281525Z AUTO 24004KT 9999 NSC 12/09 Q0997 TEMPO 7000 -SHRA FEW020CB
16:55
V
13 °C 10 km+ - 270° 270° 5 kt METAR EHLE 281455Z AUTO 27005KT 9999 NSC 13/09 Q0997 TEMPO 7000 -SHRA FEW020CB
Dados mais antigos

Nós e terceiros acompanhamos seu comportamento na internet em nosso site com cookies. Se você continuar, nós assumimos que você concorda com nossa política de cookies. Saiba mais